METAR Data
IDs: Format: Raw Decoded Include TAF

Data at: 2038 UTC 18 Apr 2021

K54J 181815Z AUTO 00000KT 10SM SCT080 SCT110 22/11 A2992 RMK AO2 T02160113
K54J 181635Z AUTO 00000KT 10SM SCT120 20/12 A2996 RMK AO2 T01950123
K54J 181435Z AUTO 00000KT 10SM BKN050 OVC110 16/12 A2997 RMK AO2 T01620120
K54J 181415Z AUTO 00000KT 10SM OVC050 16/13 A2997 RMK AO2 T01600126
K54J 181335Z AUTO 00000KT 10SM BKN050 BKN120 16/13 A2996 RMK AO2 LTG DSNT S T01550125
K54J 181215Z AUTO 00000KT 10SM OVC050 15/13 A2995 RMK AO2 P0001 T01480134
K54J 181135Z AUTO 00000KT 10SM BKN050 15/14 A2994 RMK AO2 T01470137
K54J 181115Z AUTO 00000KT 10SM SCT050 15/14 A2993 RMK AO2 T01480138
K54J 181035Z AUTO 00000KT 7SM -RA OVC049 15/15 A2993 RMK AO2 P0003 T01500146
K54J 180735Z AUTO 00000KT 4SM -RA OVC003 16/16 A2991 RMK AO2 P0002 T01570155
K54J 180655Z AUTO 00000KT 2 1/2SM -DZ OVC003 16/15 A2992 RMK AO2 P0001 T01560154
K54J 180555Z AUTO 00000KT 1/2SM FG OVC003 16/15 A2992 RMK AO2 P0001 60018 T01550152 10158 20155
K54J 180535Z AUTO 00000KT 1/2SM FG OVC003 16/15 A2991 RMK AO2 P0001 T01560153
K54J 180415Z AUTO 00000KT 4SM -RA SCT006 BKN070 OVC100 16/15 A2991 RMK AO2 LTG DSNT SE P0002 T01570154
K54J 180215Z AUTO 00000KT 7SM RA SCT001 SCT010 BKN110 16/15 A2993 RMK AO2 LTG DSNT S P0001 T01550152
K54J 180155Z AUTO 00000KT 7SM BKN001 BKN065 BKN120 16/15 A2992 RMK AO2 LTG DSNT SW T01550152
K54J 172355Z AUTO 00000KT 10SM -RA BKN002 BKN012 OVC120 16/15 A2983 RMK AO2 LTG DSNT SW P0004 60101 T01570153 10170 20156
K54J 172335Z AUTO 00000KT 5SM -RA BKN002 BKN018 OVC080 16/15 A2982 RMK AO2 LTG DSNT S P0004 T01570153
K54J 172215Z AUTO 00000KT 4SM RA SCT003 BKN006 OVC024 16/16 A2989 RMK AO2 LTG DSNT S P0005 T01580155
K54J 172155Z AUTO 00000KT 2SM RA OVC008 16/15 A2990 RMK AO2 LTG DSNT E THRU SW P0019 T01580153
K54J 172135Z AUTO 00000KT 5SM RA SCT008 BKN075 OVC090 16/15 A2989 RMK AO2 LTG DSNT E P0011 T01580153
K54J 172115Z AUTO 00000KT 2 1/2SM VCTSRA SCT070 BKN075 OVC090 16/15 A2989 RMK AO2 LTG DSNT SE AND SW P0006 T01570152
K54J 172055Z AUTO 00000KT 4SM VCTSRA SCT055 BKN065 OVC090 16/15 A2988 RMK AO2 LTG DSNT E THRU S P0022 60056 T01580153
K54J 172035Z AUTO 00000KT 2 1/2SM +TSRA SCT025 BKN050 OVC070 16/15 A2988 RMK AO2 LTG DSNT E THRU SW P0016 T01570152
K54J 172015Z AUTO 00000KT 3SM +VCTSRA SCT005 BKN050 OVC070 16/15 A2989 RMK AO2 LTG DSNT ALQS P0006 T01570152
K54J 171835Z AUTO 00000KT 10SM VCTS BKN006 OVC048 17/16 A2988 RMK AO2 LTG DSNT N AND W T01690155
K54J 171535Z AUTO 00000KT 5SM RA BKN008 BKN015 OVC050 16/15 A2993 RMK AO2 T01630149
K54J 171455Z AUTO 00000KT 10SM OVC004 16/15 A2991 RMK AO2 60003 T01620149